MS SANDHILL CRANE - FTS MS US current weather conditions

sailwx.info

Wind from 250 at 1 knots gusting 8

Air temperature 29.4° C
Dewpoint 25.4° C

Last reported at 2020-Aug-12 22:51 UTC.
Time now 2020-Aug-13 00:15 UTC

Location: N 30°27' W 088°40'.
View on Google Maps.

See reports from other nearby stations

  
Tides and Currents Weather Stations Pressure Air Temp Water Temp Dewpoint Dewpoint Depression Visibility Wind Speed Wind Dir Waves Ship Positions
date/time (UTC)wind fromknots sea level pressurealtimeterstation pressurevisibilityair tempwater tempwave heightnotes
2020-Aug-12 22:51 250 1 gusting 8 29.4
2020-Aug-12 21:51 161 4 gusting 12 29.4
2020-Aug-12 20:51 176 5 gusting 13 31.7
2020-Aug-12 19:51 153 5 gusting 11 32.2
2020-Aug-12 18:51 325 1 gusting 6 35.0
2020-Aug-12 17:51 019 1 gusting 6 33.9
2020-Aug-12 16:51 306 2 gusting 8 32.8
2020-Aug-12 15:51 300 1 gusting 6 31.7
2020-Aug-12 14:51 355 0 gusting 6 30.0
2020-Aug-12 13:51 083 0 gusting 4 27.8
2020-Aug-12 12:51 24.4
2020-Aug-12 11:51 22.8
2020-Aug-12 10:51 22.2
2020-Aug-12 09:51 22.8
2020-Aug-12 08:51 22.8
2020-Aug-12 07:51 22.8
2020-Aug-12 06:51 22.8
2020-Aug-12 05:51 22.8
2020-Aug-12 04:51 247 0 gusting 2 22.8
2020-Aug-12 03:51 22.8
2020-Aug-12 02:51 092 1 gusting 19 22.8
2020-Aug-12 01:51 28.3
2020-Aug-12 00:51 152 0 gusting 6 30.0
2020-Aug-11 23:51 197 1 gusting 7 32.2
2020-Aug-11 22:51 185 3 gusting 10 32.8
2020-Aug-11 21:51 223 3 gusting 11 33.9
2020-Aug-11 20:51 161 3 gusting 8 33.3
2020-Aug-11 19:51 166 4 gusting 9 32.2
2020-Aug-11 18:51 155 4 gusting 8 33.9
2020-Aug-11 17:51 148 1 gusting 6 34.4
2020-Aug-11 16:51 314 2 gusting 6 33.3
2020-Aug-11 15:51 312 1 gusting 6 31.1
2020-Aug-11 14:51 320 2 gusting 6 30.0
2020-Aug-11 13:51 293 1 gusting 5 27.8
2020-Aug-11 12:51 289 0 gusting 3 26.1
2020-Aug-11 11:51 25.0
2020-Aug-11 10:51 25.6
2020-Aug-11 09:51 245 0 gusting 4 26.1
2020-Aug-11 08:51 25.6
2020-Aug-11 07:51 25.6
2020-Aug-11 06:51 25.0
2020-Aug-11 05:51 25.6
2020-Aug-11 04:51 25.6
2020-Aug-11 03:51 26.7
2020-Aug-11 02:51 27.2
2020-Aug-11 01:51 27.8
2020-Aug-11 00:51 29.4